Share

Alvarado, MN

Grand Forks International (KGFK) Elev 843 ft | 47.95 °N, 97.18 °W | Change Station
Active Advisory: Flood Warning Active Notice: Public Information Statement

Current weather conditions updated 43 minutes ago

Mostly Cloudy
Mostly Cloudy
39 °F
Feels Like 35 °F
N
6
Wind Variable Wind from East
Sunrise 6:34 AM
Sunset 8:21 PM
Moon Waning Gibbous

Tomorrow is forecast to be Much Warmer than today. Periods of rain overnight tomorrow night.

Pressure 30.33 in
Visibility 10.0 miles
Clouds Mostly Cloudy 15000 ft
Windchill 35 °F
Dew Point 13 °F
Humidity 34%
Rainfall 0.00 in
Snow Depth Not available.
UV 0 out of 16
Pollen 8.00 out of 12
Air Quality Not available.
Flu Activity Sporadic
METAR KGFK 172353Z 09005KT 10SM BKN150 04/M11 A3029 RMK AO2 SLP270 T00391106 10061 20033 56006

More Conditions Fewer Conditions

Pressure 30.33 in
Visibility 10.0 miles
Clouds Mostly Cloudy 15000 ft
Windchill 35 °F
Dew Point 13 °F
Humidity 34%
Rainfall 0.00 in
Snow Depth Not available.
UV 0 out of 16
Pollen 8.00 out of 12
Air Quality Not available.
Flu Activity Sporadic
METAR KGFK 172353Z 09005KT 10SM BKN150 04/M11 A3029 RMK AO2 SLP270 T00391106 10061 20033 56006

More Conditions Fewer Conditions

10-Day Forecast

Almanac

Astronomy

Apr. 17, 2014 Rise Set
Actual Time 6:34 AM CDT 8:21 PM CDT
Civil Twilight 6:01 AM CDT 8:54 PM CDT
Nautical Twilight 5:20 AM CDT 9:35 PM CDT
Astronomical Twilight 4:36 AM CDT 10:20 PM CDT
Moon 11:18 PM CDT (4/17) 7:58 AM CDT (4/17)
Length of Visible Light 14h 53m
Length of Day
13h 47m
Tomorrow will be 3m 22s longer.
Waning Gibbous, 92% of the Moon is Illuminated
Today
Waning Gibbous
Apr 22
Last Quarter
Apr 29
New
May 6
First Quarter
May 14
Full

Today's Extremes

State Highs State Lows

Community

  • Morning Light
    Morning Light
  • New Day
    New Day
  • Lake Michigan Sunrise
    Lake Michigan Sunrise
  • sunset from izmir, narlıdere
    sunset from izmir, narlıdere
  • oregon cherry
    oregon cherry

WunderPhotos

Upload Photos

1,702,188 photos uploaded!

WunderBlogs® & News

Nearby

Snow Depth

Station Depth Elevation
No new snow has been reported.

Coastal Water Temperatures

Place Temperature
No Stations Reporting

Earthquake Activity

City Distance Mag. Time & Date
No recent earthquake activity has been reported nearby.
Minimum magnitude displayed is 2.5.

Nearby Weather Stations

There are no personal weather stations in this area.

What do you think?

We're not finished. Please let us know what you like, what you don't like, and what you are still missing.